sensor_id;sensor_type;location;lat;lon;timestamp;pressure;altitude;pressure_sealevel;temperature;humidity
22653;BME280;11493;43.344;26.226;2023-11-21T00:01:16;99098.97;;;6.16;100.00
22653;BME280;11493;43.344;26.226;2023-11-21T00:03:44;99087.06;;;6.07;100.00
22653;BME280;11493;43.344;26.226;2023-11-21T00:06:11;99077.31;;;6.01;100.00
22653;BME280;11493;43.344;26.226;2023-11-21T00:08:38;99085.72;;;6.05;100.00
22653;BME280;11493;43.344;26.226;2023-11-21T00:11:06;99087.41;;;6.01;100.00
22653;BME280;11493;43.344;26.226;2023-11-21T00:13:33;99083.09;;;5.94;100.00
22653;BME280;11493;43.344;26.226;2023-11-21T00:16:00;99078.97;;;5.97;100.00
22653;BME280;11493;43.344;26.226;2023-11-21T00:18:27;99083.91;;;5.95;100.00
22653;BME280;11493;43.344;26.226;2023-11-21T00:20:54;99080.50;;;5.84;100.00
22653;BME280;11493;43.344;26.226;2023-11-21T00:23:21;99086.19;;;5.88;100.00
22653;BME280;11493;43.344;26.226;2023-11-21T00:25:48;99091.94;;;5.86;100.00
22653;BME280;11493;43.344;26.226;2023-11-21T00:28:15;99099.59;;;5.84;100.00
22653;BME280;11493;43.344;26.226;2023-11-21T00:30:42;99094.66;;;5.86;100.00
22653;BME280;11493;43.344;26.226;2023-11-21T00:33:09;99098.75;;;5.89;100.00
22653;BME280;11493;43.344;26.226;2023-11-21T00:35:36;99098.19;;;5.92;100.00
22653;BME280;11493;43.344;26.226;2023-11-21T00:38:03;99095.53;;;5.82;100.00
22653;BME280;11493;43.344;26.226;2023-11-21T00:40:31;99084.47;;;5.68;100.00
22653;BME280;11493;43.344;26.226;2023-11-21T00:43:00;99090.47;;;5.70;100.00
22653;BME280;11493;43.344;26.226;2023-11-21T00:45:27;99086.72;;;5.61;100.00
22653;BME280;11493;43.344;26.226;2023-11-21T00:47:54;99081.38;;;5.51;100.00
22653;BME280;11493;43.344;26.226;2023-11-21T00:50:21;99078.16;;;5.44;100.00
22653;BME280;11493;43.344;26.226;2023-11-21T00:52:48;99077.53;;;5.52;100.00
22653;BME280;11493;43.344;26.226;2023-11-21T00:55:16;99077.53;;;5.52;100.00
22653;BME280;11493;43.344;26.226;2023-11-21T00:57:44;99081.91;;;5.53;100.00
22653;BME280;11493;43.344;26.226;2023-11-21T01:00:11;99069.03;;;5.58;100.00
22653;BME280;11493;43.344;26.226;2023-11-21T01:02:44;99070.31;;;5.66;100.00
22653;BME280;11493;43.344;26.226;2023-11-21T01:05:12;99072.47;;;5.69;100.00
22653;BME280;11493;43.344;26.226;2023-11-21T01:07:39;99070.84;;;5.68;100.00
22653;BME280;11493;43.344;26.226;2023-11-21T01:10:06;99071.34;;;5.70;100.00
22653;BME280;11493;43.344;26.226;2023-11-21T01:12:36;99037.38;;;5.57;100.00
22653;BME280;11493;43.344;26.226;2023-11-21T01:15:07;99054.94;;;5.75;100.00
22653;BME280;11493;43.344;26.226;2023-11-21T01:17:35;99042.72;;;5.68;100.00
22653;BME280;11493;43.344;26.226;2023-11-21T01:20:02;99062.00;;;5.76;100.00
22653;BME280;11493;43.344;26.226;2023-11-21T01:22:33;99046.31;;;5.63;100.00
22653;BME280;11493;43.344;26.226;2023-11-21T01:25:00;99059.91;;;5.68;100.00
22653;BME280;11493;43.344;26.226;2023-11-21T01:27:27;99050.03;;;5.72;100.00
22653;BME280;11493;43.344;26.226;2023-11-21T01:29:54;99044.59;;;5.72;100.00
22653;BME280;11493;43.344;26.226;2023-11-21T01:32:21;99054.34;;;5.78;100.00
22653;BME280;11493;43.344;26.226;2023-11-21T01:34:50;99031.75;;;5.73;100.00
22653;BME280;11493;43.344;26.226;2023-11-21T01:37:17;99044.69;;;5.86;100.00
22653;BME280;11493;43.344;26.226;2023-11-21T01:39:44;99044.81;;;5.76;100.00
22653;BME280;11493;43.344;26.226;2023-11-21T01:42:11;99029.25;;;5.76;100.00
22653;BME280;11493;43.344;26.226;2023-11-21T01:44:40;99039.13;;;5.72;100.00
22653;BME280;11493;43.344;26.226;2023-11-21T01:47:08;99034.25;;;5.69;100.00
22653;BME280;11493;43.344;26.226;2023-11-21T01:49:36;99004.16;;;5.50;100.00
22653;BME280;11493;43.344;26.226;2023-11-21T01:52:04;99037.66;;;5.56;100.00
22653;BME280;11493;43.344;26.226;2023-11-21T01:54:31;99038.75;;;5.55;100.00
22653;BME280;11493;43.344;26.226;2023-11-21T01:56:58;99039.34;;;5.52;100.00
22653;BME280;11493;43.344;26.226;2023-11-21T01:59:41;99042.06;;;5.52;100.00
22653;BME280;11493;43.344;26.226;2023-11-21T02:02:09;99040.97;;;5.53;100.00
22653;BME280;11493;43.344;26.226;2023-11-21T02:04:37;99041.44;;;5.60;100.00
22653;BME280;11493;43.344;26.226;2023-11-21T02:07:04;99046.44;;;5.77;100.00
22653;BME280;11493;43.344;26.226;2023-11-21T02:09:35;99047.13;;;5.92;100.00
22653;BME280;11493;43.344;26.226;2023-11-21T02:12:05;99050.75;;;6.07;100.00
22653;BME280;11493;43.344;26.226;2023-11-21T02:14:32;99052.75;;;6.20;100.00
22653;BME280;11493;43.344;26.226;2023-11-21T02:17:00;99063.03;;;6.28;100.00
22653;BME280;11493;43.344;26.226;2023-11-21T02:19:28;99047.81;;;6.22;100.00
22653;BME280;11493;43.344;26.226;2023-11-21T02:21:57;99061.41;;;6.27;100.00
22653;BME280;11493;43.344;26.226;2023-11-21T02:24:27;99042.72;;;6.15;100.00
22653;BME280;11493;43.344;26.226;2023-11-21T02:26:54;99044.56;;;6.20;100.00
22653;BME280;11493;43.344;26.226;2023-11-21T02:29:23;99051.00;;;6.29;100.00
22653;BME280;11493;43.344;26.226;2023-11-21T02:31:55;99052.78;;;5.96;100.00
22653;BME280;11493;43.344;26.226;2023-11-21T02:34:23;99064.91;;;5.85;100.00
22653;BME280;11493;43.344;26.226;2023-11-21T02:36:52;99057.72;;;5.70;100.00
22653;BME280;11493;43.344;26.226;2023-11-21T02:39:21;99043.97;;;5.51;100.00
22653;BME280;11493;43.344;26.226;2023-11-21T02:41:49;99051.19;;;5.66;100.00
22653;BME280;11493;43.344;26.226;2023-11-21T02:44:17;99065.66;;;5.67;100.00
22653;BME280;11493;43.344;26.226;2023-11-21T02:46:44;99056.47;;;5.57;100.00
22653;BME280;11493;43.344;26.226;2023-11-21T02:49:11;99046.47;;;5.48;100.00
22653;BME280;11493;43.344;26.226;2023-11-21T02:51:41;99050.34;;;5.42;100.00
22653;BME280;11493;43.344;26.226;2023-11-21T02:54:08;99052.06;;;5.33;100.00
22653;BME280;11493;43.344;26.226;2023-11-21T02:56:35;99041.31;;;5.17;100.00
22653;BME280;11493;43.344;26.226;2023-11-21T02:59:02;99050.53;;;5.21;100.00
22653;BME280;11493;43.344;26.226;2023-11-21T03:01:30;99047.63;;;5.13;100.00
22653;BME280;11493;43.344;26.226;2023-11-21T03:03:57;99057.72;;;5.12;100.00
22653;BME280;11493;43.344;26.226;2023-11-21T03:06:24;99053.09;;;5.13;100.00
22653;BME280;11493;43.344;26.226;2023-11-21T03:08:51;99062.13;;;5.08;100.00
22653;BME280;11493;43.344;26.226;2023-11-21T03:11:18;99046.09;;;5.02;100.00
22653;BME280;11493;43.344;26.226;2023-11-21T03:13:45;99058.84;;;5.11;100.00
22653;BME280;11493;43.344;26.226;2023-11-21T03:16:12;99057.22;;;5.10;100.00
22653;BME280;11493;43.344;26.226;2023-11-21T03:18:40;99060.72;;;5.16;100.00
22653;BME280;11493;43.344;26.226;2023-11-21T03:21:07;99063.69;;;5.19;100.00
22653;BME280;11493;43.344;26.226;2023-11-21T03:23:37;99062.63;;;5.15;100.00
22653;BME280;11493;43.344;26.226;2023-11-21T03:26:04;99044.75;;;4.99;100.00
22653;BME280;11493;43.344;26.226;2023-11-21T03:28:34;99053.41;;;5.06;100.00
22653;BME280;11493;43.344;26.226;2023-11-21T03:31:02;99052.34;;;5.02;100.00
22653;BME280;11493;43.344;26.226;2023-11-21T03:33:29;99058.13;;;4.95;100.00
22653;BME280;11493;43.344;26.226;2023-11-21T03:35:56;99057.06;;;4.91;100.00
22653;BME280;11493;43.344;26.226;2023-11-21T03:38:24;99041.94;;;4.75;100.00
22653;BME280;11493;43.344;26.226;2023-11-21T03:40:51;99045.75;;;4.74;100.00
22653;BME280;11493;43.344;26.226;2023-11-21T03:43:18;99047.69;;;4.69;100.00
22653;BME280;11493;43.344;26.226;2023-11-21T03:45:45;99048.75;;;4.73;100.00
22653;BME280;11493;43.344;26.226;2023-11-21T03:48:12;99052.78;;;4.80;100.00
22653;BME280;11493;43.344;26.226;2023-11-21T03:50:40;99056.09;;;4.77;100.00
22653;BME280;11493;43.344;26.226;2023-11-21T03:53:07;99067.28;;;4.76;100.00
22653;BME280;11493;43.344;26.226;2023-11-21T03:55:34;99058.53;;;4.79;100.00
22653;BME280;11493;43.344;26.226;2023-11-21T03:58:01;99069.19;;;4.75;100.00
22653;BME280;11493;43.344;26.226;2023-11-21T04:00:28;99044.16;;;4.68;100.00
22653;BME280;11493;43.344;26.226;2023-11-21T04:02:55;99067.25;;;4.81;100.00
22653;BME280;11493;43.344;26.226;2023-11-21T04:05:23;99062.66;;;4.71;100.00
22653;BME280;11493;43.344;26.226;2023-11-21T04:07:50;99046.97;;;4.53;100.00
22653;BME280;11493;43.344;26.226;2023-11-21T04:10:18;99055.97;;;4.53;100.00
22653;BME280;11493;43.344;26.226;2023-11-21T04:12:45;99063.31;;;4.53;100.00
22653;BME280;11493;43.344;26.226;2023-11-21T04:15:13;99066.63;;;4.50;100.00
22653;BME280;11493;43.344;26.226;2023-11-21T04:17:41;99068.59;;;4.44;100.00
22653;BME280;11493;43.344;26.226;2023-11-21T04:20:09;99065.25;;;4.47;100.00
22653;BME280;11493;43.344;26.226;2023-11-21T04:22:41;99080.50;;;4.48;100.00
22653;BME280;11493;43.344;26.226;2023-11-21T04:25:12;99072.34;;;4.48;100.00
22653;BME280;11493;43.344;26.226;2023-11-21T04:27:40;99059.59;;;4.44;100.00
22653;BME280;11493;43.344;26.226;2023-11-21T04:30:11;99069.06;;;4.51;100.00
22653;BME280;11493;43.344;26.226;2023-11-21T04:32:38;99063.41;;;4.43;100.00
22653;BME280;11493;43.344;26.226;2023-11-21T04:35:09;99063.69;;;4.41;100.00
22653;BME280;11493;43.344;26.226;2023-11-21T04:37:36;99063.41;;;4.43;100.00
22653;BME280;11493;43.344;26.226;2023-11-21T04:40:04;99060.22;;;4.31;100.00
22653;BME280;11493;43.344;26.226;2023-11-21T04:42:35;99073.53;;;4.37;100.00
22653;BME280;11493;43.344;26.226;2023-11-21T04:45:07;99061.00;;;4.36;100.00
22653;BME280;11493;43.344;26.226;2023-11-21T04:47:40;99071.34;;;4.34;100.00
22653;BME280;11493;43.344;26.226;2023-11-21T04:50:07;99075.72;;;4.30;100.00
22653;BME280;11493;43.344;26.226;2023-11-21T04:52:34;99070.25;;;4.35;100.00
22653;BME280;11493;43.344;26.226;2023-11-21T04:55:01;99081.16;;;4.35;100.00
22653;BME280;11493;43.344;26.226;2023-11-21T04:57:29;99068.66;;;4.29;100.00
22653;BME280;11493;43.344;26.226;2023-11-21T04:59:56;99082.78;;;4.36;100.00
22653;BME280;11493;43.344;26.226;2023-11-21T05:02:24;99093.16;;;4.34;100.00
22653;BME280;11493;43.344;26.226;2023-11-21T05:05:02;99087.72;;;4.29;100.00
22653;BME280;11493;43.344;26.226;2023-11-21T05:07:29;99098.06;;;4.27;100.00
22653;BME280;11493;43.344;26.226;2023-11-21T05:09:58;99090.97;;;4.36;100.00
22653;BME280;11493;43.344;26.226;2023-11-21T05:12:25;99101.84;;;4.41;100.00
22653;BME280;11493;43.344;26.226;2023-11-21T05:14:53;99073.34;;;4.18;100.00
22653;BME280;11493;43.344;26.226;2023-11-21T05:17:21;99091.53;;;4.28;100.00
22653;BME280;11493;43.344;26.226;2023-11-21T05:19:49;99102.97;;;4.30;100.00
22653;BME280;11493;43.344;26.226;2023-11-21T05:22:16;99095.34;;;4.32;100.00
22653;BME280;11493;43.344;26.226;2023-11-21T05:24:43;99104.59;;;4.31;100.00
22653;BME280;11493;43.344;26.226;2023-11-21T05:27:10;99099.44;;;4.29;100.00
22653;BME280;11493;43.344;26.226;2023-11-21T05:29:37;99094.03;;;4.19;100.00
22653;BME280;11493;43.344;26.226;2023-11-21T05:32:06;99108.41;;;4.35;100.00
22653;BME280;11493;43.344;26.226;2023-11-21T05:34:33;99111.09;;;4.40;100.00
22653;BME280;11493;43.344;26.226;2023-11-21T05:37:00;99102.66;;;4.42;100.00
22653;BME280;11493;43.344;26.226;2023-11-21T05:39:27;99102.38;;;4.43;100.00
22653;BME280;11493;43.344;26.226;2023-11-21T05:41:55;99103.19;;;4.44;100.00
22653;BME280;11493;43.344;26.226;2023-11-21T05:44:22;99118.94;;;4.47;100.00
22653;BME280;11493;43.344;26.226;2023-11-21T05:46:50;99111.56;;;4.47;100.00
22653;BME280;11493;43.344;26.226;2023-11-21T05:49:17;99114.84;;;4.49;100.00
22653;BME280;11493;43.344;26.226;2023-11-21T05:51:48;99113.47;;;4.52;100.00
22653;BME280;11493;43.344;26.226;2023-11-21T05:54:15;99112.09;;;4.54;100.00
22653;BME280;11493;43.344;26.226;2023-11-21T05:56:43;99126.78;;;4.58;100.00
22653;BME280;11493;43.344;26.226;2023-11-21T05:59:11;99126.22;;;4.61;100.00
22653;BME280;11493;43.344;26.226;2023-11-21T06:01:38;99120.75;;;4.67;100.00
22653;BME280;11493;43.344;26.226;2023-11-21T06:04:05;99127.00;;;4.67;100.00
22653;BME280;11493;43.344;26.226;2023-11-21T06:06:35;99125.63;;;4.70;100.00
22653;BME280;11493;43.344;26.226;2023-11-21T06:09:03;99110.09;;;4.70;100.00
22653;BME280;11493;43.344;26.226;2023-11-21T06:11:30;99126.09;;;4.87;100.00
22653;BME280;11493;43.344;26.226;2023-11-21T06:13:57;99135.28;;;4.96;100.00
22653;BME280;11493;43.344;26.226;2023-11-21T06:16:25;99134.72;;;4.99;100.00
22653;BME280;11493;43.344;26.226;2023-11-21T06:18:52;99122.16;;;5.03;100.00
22653;BME280;11493;43.344;26.226;2023-11-21T06:21:19;99139.56;;;5.12;100.00
22653;BME280;11493;43.344;26.226;2023-11-21T06:23:46;99132.19;;;5.13;100.00
22653;BME280;11493;43.344;26.226;2023-11-21T06:26:17;99130.50;;;5.17;100.00
22653;BME280;11493;43.344;26.226;2023-11-21T06:28:45;99128.59;;;5.17;100.00
22653;BME280;11493;43.344;26.226;2023-11-21T06:31:12;99132.03;;;5.28;100.00
22653;BME280;11493;43.344;26.226;2023-11-21T06:33:40;99142.59;;;5.40;100.00
22653;BME280;11493;43.344;26.226;2023-11-21T06:36:09;99150.44;;;5.46;100.00
22653;BME280;11493;43.344;26.226;2023-11-21T06:38:38;99139.50;;;5.51;100.00
22653;BME280;11493;43.344;26.226;2023-11-21T06:41:06;99141.88;;;5.58;100.00
22653;BME280;11493;43.344;26.226;2023-11-21T06:43:33;99135.56;;;5.63;100.00
22653;BME280;11493;43.344;26.226;2023-11-21T06:46:00;99139.34;;;5.67;100.00
22653;BME280;11493;43.344;26.226;2023-11-21T06:48:27;99138.16;;;5.78;100.00
22653;BME280;11493;43.344;26.226;2023-11-21T06:50:54;99140.25;;;5.86;100.00
22653;BME280;11493;43.344;26.226;2023-11-21T06:53:22;99136.94;;;5.94;100.00
22653;BME280;11493;43.344;26.226;2023-11-21T06:55:48;99148.31;;;6.01;100.00
22653;BME280;11493;43.344;26.226;2023-11-21T06:58:15;99149.31;;;6.10;100.00
22653;BME280;11493;43.344;26.226;2023-11-21T07:00:42;99150.81;;;6.21;100.00
22653;BME280;11493;43.344;26.226;2023-11-21T07:03:13;99147.09;;;6.36;100.00
22653;BME280;11493;43.344;26.226;2023-11-21T07:05:41;99142.91;;;6.44;100.00
22653;BME280;11493;43.344;26.226;2023-11-21T07:08:08;99146.41;;;6.49;100.00
22653;BME280;11493;43.344;26.226;2023-11-21T07:10:35;99143.03;;;6.57;100.00
22653;BME280;11493;43.344;26.226;2023-11-21T07:13:03;99136.81;;;6.71;100.00
22653;BME280;11493;43.344;26.226;2023-11-21T07:15:30;99130.69;;;6.79;100.00
22653;BME280;11493;43.344;26.226;2023-11-21T07:17:58;99116.06;;;6.88;100.00
22653;BME280;11493;43.344;26.226;2023-11-21T07:20:25;99125.28;;;6.92;100.00
22653;BME280;11493;43.344;26.226;2023-11-21T07:22:53;99115.69;;;6.95;100.00
22653;BME280;11493;43.344;26.226;2023-11-21T07:25:20;99115.53;;;7.05;100.00
22653;BME280;11493;43.344;26.226;2023-11-21T07:27:49;99111.31;;;7.13;100.00
22653;BME280;11493;43.344;26.226;2023-11-21T07:30:16;99108.13;;;7.24;100.00
22653;BME280;11493;43.344;26.226;2023-11-21T07:32:44;99092.00;;;7.23;100.00
22653;BME280;11493;43.344;26.226;2023-11-21T07:35:14;99105.13;;;7.40;100.00
22653;BME280;11493;43.344;26.226;2023-11-21T07:37:42;99112.03;;;7.51;100.00
22653;BME280;11493;43.344;26.226;2023-11-21T07:40:10;99115.13;;;7.63;100.00
22653;BME280;11493;43.344;26.226;2023-11-21T07:42:38;99123.63;;;7.62;100.00
22653;BME280;11493;43.344;26.226;2023-11-21T07:45:06;99137.44;;;7.70;100.00
22653;BME280;11493;43.344;26.226;2023-11-21T07:47:34;99129.97;;;7.76;100.00
22653;BME280;11493;43.344;26.226;2023-11-21T07:50:03;99123.50;;;7.85;100.00
22653;BME280;11493;43.344;26.226;2023-11-21T07:52:30;99124.31;;;8.00;100.00
22653;BME280;11493;43.344;26.226;2023-11-21T07:54:58;99117.31;;;8.07;100.00
22653;BME280;11493;43.344;26.226;2023-11-21T07:57:25;99112.16;;;8.06;100.00
22653;BME280;11493;43.344;26.226;2023-11-21T07:59:52;99113.25;;;8.18;100.00
22653;BME280;11493;43.344;26.226;2023-11-21T08:02:21;99117.41;;;8.30;100.00
22653;BME280;11493;43.344;26.226;2023-11-21T08:04:49;99119.88;;;8.45;100.00
22653;BME280;11493;43.344;26.226;2023-11-21T08:07:17;99111.84;;;8.48;100.00
22653;BME280;11493;43.344;26.226;2023-11-21T08:09:44;99115.91;;;8.65;100.00
22653;BME280;11493;43.344;26.226;2023-11-21T08:12:13;99116.69;;;8.79;100.00
22653;BME280;11493;43.344;26.226;2023-11-21T08:14:41;99100.53;;;8.77;100.00
22653;BME280;11493;43.344;26.226;2023-11-21T08:17:09;99124.81;;;9.06;100.00
22653;BME280;11493;43.344;26.226;2023-11-21T08:19:37;99125.09;;;9.18;100.00
22653;BME280;11493;43.344;26.226;2023-11-21T08:22:04;99112.75;;;9.30;100.00
22653;BME280;11493;43.344;26.226;2023-11-21T08:24:31;99112.69;;;9.43;100.00
22653;BME280;11493;43.344;26.226;2023-11-21T08:26:58;99115.56;;;9.61;100.00
22653;BME280;11493;43.344;26.226;2023-11-21T08:29:25;99118.19;;;9.74;100.00
22653;BME280;11493;43.344;26.226;2023-11-21T08:31:53;99116.50;;;9.87;100.00
22653;BME280;11493;43.344;26.226;2023-11-21T08:34:21;99120.91;;;9.97;100.00
22653;BME280;11493;43.344;26.226;2023-11-21T08:36:48;99123.06;;;10.08;100.00
22653;BME280;11493;43.344;26.226;2023-11-21T08:39:15;99109.25;;;10.22;100.00
22653;BME280;11493;43.344;26.226;2023-11-21T08:41:43;99114.97;;;10.34;100.00
22653;BME280;11493;43.344;26.226;2023-11-21T08:44:10;99111.72;;;10.41;100.00
22653;BME280;11493;43.344;26.226;2023-11-21T08:46:37;99100.91;;;10.44;100.00
22653;BME280;11493;43.344;26.226;2023-11-21T08:49:06;99090.72;;;10.53;100.00
22653;BME280;11493;43.344;26.226;2023-11-21T08:51:33;99115.06;;;10.77;100.00
22653;BME280;11493;43.344;26.226;2023-11-21T08:54:00;99116.72;;;10.96;100.00
22653;BME280;11493;43.344;26.226;2023-11-21T08:56:31;99101.00;;;11.05;100.00
22653;BME280;11493;43.344;26.226;2023-11-21T08:58:58;99094.19;;;11.19;100.00
22653;BME280;11493;43.344;26.226;2023-11-21T09:01:29;99080.25;;;11.25;100.00
22653;BME280;11493;43.344;26.226;2023-11-21T09:03:58;99078.78;;;11.36;100.00
22653;BME280;11493;43.344;26.226;2023-11-21T09:06:25;99069.38;;;11.45;100.00
22653;BME280;11493;43.344;26.226;2023-11-21T09:08:52;99067.25;;;11.51;100.00
22653;BME280;11493;43.344;26.226;2023-11-21T09:11:19;99072.75;;;11.51;100.00
22653;BME280;11493;43.344;26.226;2023-11-21T09:13:46;99061.09;;;11.45;100.00
22653;BME280;11493;43.344;26.226;2023-11-21T09:16:14;99044.09;;;11.43;100.00
22653;BME280;11493;43.344;26.226;2023-11-21T09:18:43;99053.97;;;11.53;100.00
22653;BME280;11493;43.344;26.226;2023-11-21T09:21:12;99039.19;;;11.66;100.00
22653;BME280;11493;43.344;26.226;2023-11-21T09:23:39;99051.50;;;11.69;100.00
22653;BME280;11493;43.344;26.226;2023-11-21T09:26:06;99045.00;;;11.65;100.00
22653;BME280;11493;43.344;26.226;2023-11-21T09:28:33;99038.66;;;11.73;100.00
22653;BME280;11493;43.344;26.226;2023-11-21T09:31:01;99025.03;;;11.76;100.00
22653;BME280;11493;43.344;26.226;2023-11-21T09:33:30;99034.31;;;11.80;100.00
22653;BME280;11493;43.344;26.226;2023-11-21T09:35:57;99032.28;;;11.90;100.00
22653;BME280;11493;43.344;26.226;2023-11-21T09:38:25;99025.44;;;11.96;100.00
22653;BME280;11493;43.344;26.226;2023-11-21T09:40:52;99024.78;;;11.99;99.66
22653;BME280;11493;43.344;26.226;2023-11-21T09:43:21;99022.84;;;11.99;99.19
22653;BME280;11493;43.344;26.226;2023-11-21T09:45:58;99016.34;;;12.04;98.69
22653;BME280;11493;43.344;26.226;2023-11-21T09:48:27;99014.97;;;12.18;99.34
22653;BME280;11493;43.344;26.226;2023-11-21T09:50:54;99007.59;;;12.31;99.73
22653;BME280;11493;43.344;26.226;2023-11-21T09:53:22;98996.50;;;12.40;100.00
22653;BME280;11493;43.344;26.226;2023-11-21T09:55:52;98996.25;;;12.54;100.00
22653;BME280;11493;43.344;26.226;2023-11-21T09:58:20;99003.66;;;12.62;99.02
22653;BME280;11493;43.344;26.226;2023-11-21T10:00:53;98998.81;;;12.59;98.06
22653;BME280;11493;43.344;26.226;2023-11-21T10:03:20;98992.34;;;12.55;97.22
22653;BME280;11493;43.344;26.226;2023-11-21T10:05:50;98999.47;;;12.56;96.84
22653;BME280;11493;43.344;26.226;2023-11-21T10:08:19;98994.91;;;12.60;97.28
22653;BME280;11493;43.344;26.226;2023-11-21T10:10:49;98991.19;;;12.56;97.12
22653;BME280;11493;43.344;26.226;2023-11-21T10:13:18;98985.69;;;12.56;96.38
22653;BME280;11493;43.344;26.226;2023-11-21T10:15:50;98978.75;;;12.49;95.45
22653;BME280;11493;43.344;26.226;2023-11-21T10:18:18;98983.88;;;12.60;95.58
22653;BME280;11493;43.344;26.226;2023-11-21T10:20:46;98984.09;;;12.67;96.25
22653;BME280;11493;43.344;26.226;2023-11-21T10:23:23;98979.13;;;12.81;95.58
22653;BME280;11493;43.344;26.226;2023-11-21T10:25:52;98976.41;;;12.93;94.73
22653;BME280;11493;43.344;26.226;2023-11-21T10:28:20;98970.47;;;13.03;94.60
22653;BME280;11493;43.344;26.226;2023-11-21T10:30:48;98969.72;;;13.15;94.10
22653;BME280;11493;43.344;26.226;2023-11-21T10:33:15;98949.91;;;13.13;92.59
22653;BME280;11493;43.344;26.226;2023-11-21T10:35:46;98957.25;;;13.30;91.18
22653;BME280;11493;43.344;26.226;2023-11-21T10:38:18;98962.78;;;13.54;89.51
22653;BME280;11493;43.344;26.226;2023-11-21T10:40:48;98949.69;;;13.63;88.41
22653;BME280;11493;43.344;26.226;2023-11-21T10:43:17;98947.25;;;13.62;87.67
22653;BME280;11493;43.344;26.226;2023-11-21T10:45:44;98944.94;;;13.64;87.83
22653;BME280;11493;43.344;26.226;2023-11-21T10:48:15;98938.50;;;13.60;88.10
22653;BME280;11493;43.344;26.226;2023-11-21T10:50:46;98944.16;;;13.63;88.28
22653;BME280;11493;43.344;26.226;2023-11-21T10:53:16;98930.78;;;13.77;87.23
22653;BME280;11493;43.344;26.226;2023-11-21T10:55:46;98932.06;;;13.80;86.81
22653;BME280;11493;43.344;26.226;2023-11-21T10:58:14;98930.91;;;13.81;86.22
22653;BME280;11493;43.344;26.226;2023-11-21T11:00:41;98916.97;;;13.77;86.02
22653;BME280;11493;43.344;26.226;2023-11-21T11:03:12;98920.41;;;13.87;86.16
22653;BME280;11493;43.344;26.226;2023-11-21T11:05:44;98927.00;;;13.94;86.12
22653;BME280;11493;43.344;26.226;2023-11-21T11:08:21;98923.28;;;14.02;86.05
22653;BME280;11493;43.344;26.226;2023-11-21T11:10:55;98921.97;;;14.12;84.41
22653;BME280;11493;43.344;26.226;2023-11-21T11:13:22;98919.78;;;14.18;83.30
22653;BME280;11493;43.344;26.226;2023-11-21T11:15:58;98902.59;;;14.24;83.27
22653;BME280;11493;43.344;26.226;2023-11-21T11:18:29;98912.50;;;14.37;81.71
22653;BME280;11493;43.344;26.226;2023-11-21T11:24:05;98896.56;;;14.34;80.02
22653;BME280;11493;43.344;26.226;2023-11-21T11:27:02;98892.41;;;14.40;80.84
22653;BME280;11493;43.344;26.226;2023-11-21T11:33:33;98892.41;;;14.81;79.10
22653;BME280;11493;43.344;26.226;2023-11-21T11:38:22;98885.56;;;15.06;77.82
22653;BME280;11493;43.344;26.226;2023-11-21T11:40:53;98885.03;;;15.16;77.67
22653;BME280;11493;43.344;26.226;2023-11-21T11:43:25;98882.63;;;15.15;77.31
22653;BME280;11493;43.344;26.226;2023-11-21T11:45:56;98884.91;;;14.97;77.57
22653;BME280;11493;43.344;26.226;2023-11-21T11:48:23;98885.72;;;14.97;76.38
22653;BME280;11493;43.344;26.226;2023-11-21T11:51:14;98867.03;;;14.94;77.01
22653;BME280;11493;43.344;26.226;2023-11-21T11:53:45;98883.22;;;14.92;77.51
22653;BME280;11493;43.344;26.226;2023-11-21T11:56:32;98877.56;;;14.89;77.61
22653;BME280;11493;43.344;26.226;2023-11-21T11:59:04;98871.66;;;14.74;78.01
22653;BME280;11493;43.344;26.226;2023-11-21T12:01:33;98870.88;;;14.74;78.42
22653;BME280;11493;43.344;26.226;2023-11-21T12:07:01;98864.53;;;14.73;78.67
22653;BME280;11493;43.344;26.226;2023-11-21T12:09:31;98863.72;;;14.73;77.16
22653;BME280;11493;43.344;26.226;2023-11-21T12:11:59;98823.75;;;14.58;76.91
22653;BME280;11493;43.344;26.226;2023-11-21T12:14:27;98847.38;;;14.84;75.45
22653;BME280;11493;43.344;26.226;2023-11-21T12:16:55;98849.00;;;14.85;75.89
22653;BME280;11493;43.344;26.226;2023-11-21T12:19:22;98850.16;;;14.84;75.77
22653;BME280;11493;43.344;26.226;2023-11-21T12:21:49;98851.31;;;14.83;77.04
22653;BME280;11493;43.344;26.226;2023-11-21T12:24:17;98843.88;;;14.87;77.43
22653;BME280;11493;43.344;26.226;2023-11-21T12:26:44;98840.41;;;14.90;78.08
22653;BME280;11493;43.344;26.226;2023-11-21T12:29:12;98810.19;;;14.69;78.93
22653;BME280;11493;43.344;26.226;2023-11-21T12:31:39;98833.59;;;14.87;79.42
22653;BME280;11493;43.344;26.226;2023-11-21T12:34:07;98823.69;;;14.86;79.15
22653;BME280;11493;43.344;26.226;2023-11-21T12:36:38;98829.16;;;14.83;78.67
22653;BME280;11493;43.344;26.226;2023-11-21T12:39:05;98820.41;;;14.81;78.83
22653;BME280;11493;43.344;26.226;2023-11-21T12:41:33;98802.09;;;14.76;78.84
22653;BME280;11493;43.344;26.226;2023-11-21T12:44:00;98806.72;;;14.72;79.17
22653;BME280;11493;43.344;26.226;2023-11-21T12:46:27;98808.34;;;14.73;79.53
22653;BME280;11493;43.344;26.226;2023-11-21T12:49:00;98795.56;;;14.68;78.92
22653;BME280;11493;43.344;26.226;2023-11-21T12:51:28;98805.22;;;14.74;78.80
22653;BME280;11493;43.344;26.226;2023-11-21T12:53:56;98805.56;;;14.73;78.37
22653;BME280;11493;43.344;26.226;2023-11-21T12:56:24;98797.69;;;14.75;78.00
22653;BME280;11493;43.344;26.226;2023-11-21T12:58:54;98794.22;;;14.78;77.62
22653;BME280;11493;43.344;26.226;2023-11-21T13:01:25;98784.75;;;14.79;77.46
22653;BME280;11493;43.344;26.226;2023-11-21T13:03:56;98789.84;;;14.77;77.67
22653;BME280;11493;43.344;26.226;2023-11-21T13:06:23;98784.03;;;14.82;78.11
22653;BME280;11493;43.344;26.226;2023-11-21T13:08:56;98776.00;;;14.77;78.40